Alcyone — WCO6628 — position and weather

sailwx.info

Track history (hours):
 
Tides and Currents Weather Stations Pressure Air Temp Water Temp Dewpoint Dewpoint Depression Visibility Wind Speed Wind Dir Waves Ship Positions

Alcyone

Owner: MUTO, HIRONAO, LA PALMA, CA. More information available from US FCC via Universal Licensing System and Coast Guard Vessel Documentation Center.

Last reported at 2017-Oct-24 17:23 UTC. Time now 2017-Dec-12 20:00 UTC.
Position N 38°51' W 076°32'.
Warning: this ship's position is 49 days out of date.

Type: Pleasure craft. MMSI: 338071737.

Date/timePositionNaut miles runAvg speedWind from/ knotsBaromVisibWave heightAir tempDewpointWater temp
2017-Oct-24 17:23N 38°51' W 076°32'1 3.7
2017-Oct-24 17:00N 38°52' W 076°31'2 4.7
2017-Oct-24 16:30N 38°53' W 076°28'3 5.9
2017-Oct-24 16:00N 38°55' W 076°25'3 5.6
2017-Oct-24 15:30N 38°57' W 076°23'3 5.0
2017-Oct-24 15:00N 38°59' W 076°23'4 5.6
2017-Oct-24 14:19N 39°03' W 076°25'4 0.2
2017-Oct-23 14:46N 39°04' W 076°29'3 0.2
2017-Oct-22 19:07N 39°03' W 076°25'2 5.4
2017-Oct-22 18:46N 39°02' W 076°24'1 4.7
2017-Oct-22 18:30N 39°01' W 076°23'2 4.7
2017-Oct-22 18:00N 38°59' W 076°24'3 5.0
2017-Oct-22 17:30N 38°56' W 076°24'3 4.9
2017-Oct-22 16:48N 38°53' W 076°27'2 5.5
2017-Oct-22 16:29N 38°52' W 076°29'3 5.3
2017-Oct-22 16:00N 38°51' W 076°32'1 0.0
2017-Oct-20 16:35N 38°51' W 076°32'0 2.0
2017-Oct-20 16:30N 38°51' W 076°32'2 3.5
2017-Oct-20 16:00N 38°52' W 076°30'3 5.1
2017-Oct-20 15:30N 38°53' W 076°28'2 4.8
2017-Oct-20 15:00N 38°55' W 076°26'2 4.5
2017-Oct-20 14:30N 38°57' W 076°27'3 3.0
2017-Oct-20 13:30N 38°60' W 076°29'3 5.9
2017-Oct-20 13:00N 39°02' W 076°32'0 0.0
2017-Oct-19 17:30N 39°02' W 076°32'3 5.2
2017-Oct-19 17:00N 39°00' W 076°30'2 3.3
2017-Oct-19 16:30N 38°59' W 076°28'2 4.5
2017-Oct-19 16:00N 38°57' W 076°26'2 3.6
2017-Oct-19 15:30N 38°55' W 076°25'3 2.9
2017-Oct-19 14:28N 38°53' W 076°27'2 4.3
2017-Oct-19 14:01N 38°52' W 076°29'2 4.7
2017-Oct-19 13:30N 38°51' W 076°32'  
Track history (hours):
 
Tides and Currents Weather Stations Pressure Air Temp Water Temp Dewpoint Dewpoint Depression Visibility Wind Speed Wind Dir Waves Ship Positions

Alcyone

Owner: MUTO, HIRONAO, LA PALMA, CA. More information available from US FCC via Universal Licensing System and Coast Guard Vessel Documentation Center.

Last reported at 2017-Oct-24 17:23 UTC. Time now 2017-Dec-12 20:00 UTC.
Position N 38°51' W 076°32'.
Warning: this ship's position is 49 days out of date.

Type: Pleasure craft. MMSI: 338071737.

Date/timePositionNaut miles runAvg speedWind from/ knotsBaromVisibWave heightAir tempDewpointWater temp
2017-Oct-24 17:23N 38°51' W 076°32'1 3.7
2017-Oct-24 17:00N 38°52' W 076°31'2 4.7
2017-Oct-24 16:30N 38°53' W 076°28'3 5.9
2017-Oct-24 16:00N 38°55' W 076°25'3 5.6
2017-Oct-24 15:30N 38°57' W 076°23'3 5.0
2017-Oct-24 15:00N 38°59' W 076°23'4 5.6
2017-Oct-24 14:19N 39°03' W 076°25'4 0.2
2017-Oct-23 14:46N 39°04' W 076°29'3 0.2
2017-Oct-22 19:07N 39°03' W 076°25'2 5.4
2017-Oct-22 18:46N 39°02' W 076°24'1 4.7
2017-Oct-22 18:30N 39°01' W 076°23'2 4.7
2017-Oct-22 18:00N 38°59' W 076°24'3 5.0
2017-Oct-22 17:30N 38°56' W 076°24'3 4.9
2017-Oct-22 16:48N 38°53' W 076°27'2 5.5
2017-Oct-22 16:29N 38°52' W 076°29'3 5.3
2017-Oct-22 16:00N 38°51' W 076°32'1 0.0
2017-Oct-20 16:35N 38°51' W 076°32'0 2.0
2017-Oct-20 16:30N 38°51' W 076°32'2 3.5
2017-Oct-20 16:00N 38°52' W 076°30'3 5.1
2017-Oct-20 15:30N 38°53' W 076°28'2 4.8
2017-Oct-20 15:00N 38°55' W 076°26'2 4.5
2017-Oct-20 14:30N 38°57' W 076°27'3 3.0
2017-Oct-20 13:30N 38°60' W 076°29'3 5.9
2017-Oct-20 13:00N 39°02' W 076°32'0 0.0
2017-Oct-19 17:30N 39°02' W 076°32'3 5.2
2017-Oct-19 17:00N 39°00' W 076°30'2 3.3
2017-Oct-19 16:30N 38°59' W 076°28'2 4.5
2017-Oct-19 16:00N 38°57' W 076°26'2 3.6
2017-Oct-19 15:30N 38°55' W 076°25'3 2.9
2017-Oct-19 14:28N 38°53' W 076°27'2 4.3
2017-Oct-19 14:01N 38°52' W 076°29'2 4.7
2017-Oct-19 13:30N 38°51' W 076°32'  

Dump ship's entire track history